sensor_id;sensor_type;location;lat;lon;timestamp;temperature;humidity
26505;DHT22;19493;48.042;7.584;2023-05-10T00:02:07;13.40;99.90
26505;DHT22;19493;48.042;7.584;2023-05-10T00:04:32;13.40;99.90
26505;DHT22;19493;48.042;7.584;2023-05-10T00:06:58;13.40;99.90
26505;DHT22;19493;48.042;7.584;2023-05-10T00:09:24;13.40;99.90
26505;DHT22;19493;48.042;7.584;2023-05-10T00:11:49;13.40;99.90
26505;DHT22;19493;48.042;7.584;2023-05-10T00:14:15;13.40;99.90
26505;DHT22;19493;48.042;7.584;2023-05-10T00:16:40;13.40;99.90
26505;DHT22;19493;48.042;7.584;2023-05-10T00:19:06;13.40;99.90
26505;DHT22;19493;48.042;7.584;2023-05-10T00:21:33;13.40;99.90
26505;DHT22;19493;48.042;7.584;2023-05-10T00:23:59;13.40;99.90
26505;DHT22;19493;48.042;7.584;2023-05-10T00:26:25;13.40;99.90
26505;DHT22;19493;48.042;7.584;2023-05-10T00:28:50;13.40;99.90
26505;DHT22;19493;48.042;7.584;2023-05-10T00:31:16;13.40;99.90
26505;DHT22;19493;48.042;7.584;2023-05-10T00:33:41;13.40;99.90
26505;DHT22;19493;48.042;7.584;2023-05-10T00:36:07;13.40;99.90
26505;DHT22;19493;48.042;7.584;2023-05-10T00:38:33;13.40;99.90
26505;DHT22;19493;48.042;7.584;2023-05-10T00:40:59;13.30;99.90
26505;DHT22;19493;48.042;7.584;2023-05-10T00:43:24;13.40;99.90
26505;DHT22;19493;48.042;7.584;2023-05-10T00:45:50;13.40;99.90
26505;DHT22;19493;48.042;7.584;2023-05-10T00:48:16;13.40;99.90
26505;DHT22;19493;48.042;7.584;2023-05-10T00:50:41;13.40;99.90
26505;DHT22;19493;48.042;7.584;2023-05-10T00:53:07;13.40;99.90
26505;DHT22;19493;48.042;7.584;2023-05-10T00:55:33;13.50;99.90
26505;DHT22;19493;48.042;7.584;2023-05-10T00:57:59;13.50;99.90
26505;DHT22;19493;48.042;7.584;2023-05-10T01:00:25;13.50;99.90
26505;DHT22;19493;48.042;7.584;2023-05-10T01:02:52;13.50;99.90
26505;DHT22;19493;48.042;7.584;2023-05-10T01:05:18;13.50;99.90
26505;DHT22;19493;48.042;7.584;2023-05-10T01:07:44;13.50;99.90
26505;DHT22;19493;48.042;7.584;2023-05-10T01:10:09;13.60;99.90
26505;DHT22;19493;48.042;7.584;2023-05-10T01:12:38;13.50;99.90
26505;DHT22;19493;48.042;7.584;2023-05-10T01:15:08;13.60;99.90
26505;DHT22;19493;48.042;7.584;2023-05-10T01:17:40;13.60;99.90
26505;DHT22;19493;48.042;7.584;2023-05-10T01:20:09;13.60;99.90
26505;DHT22;19493;48.042;7.584;2023-05-10T01:23:04;13.50;99.90
26505;DHT22;19493;48.042;7.584;2023-05-10T01:26:06;13.50;99.90
26505;DHT22;19493;48.042;7.584;2023-05-10T01:31:59;13.50;99.90
26505;DHT22;19493;48.042;7.584;2023-05-10T01:40:18;13.60;99.90
26505;DHT22;19493;48.042;7.584;2023-05-10T01:42:53;13.50;99.90
26505;DHT22;19493;48.042;7.584;2023-05-10T01:45:37;13.50;99.90
26505;DHT22;19493;48.042;7.584;2023-05-10T01:48:06;13.50;99.90
26505;DHT22;19493;48.042;7.584;2023-05-10T01:50:36;13.40;99.90
26505;DHT22;19493;48.042;7.584;2023-05-10T01:53:02;13.40;99.90
26505;DHT22;19493;48.042;7.584;2023-05-10T01:55:33;13.40;99.90
26505;DHT22;19493;48.042;7.584;2023-05-10T01:58:09;13.50;99.90
26505;DHT22;19493;48.042;7.584;2023-05-10T02:00:35;13.50;99.90
26505;DHT22;19493;48.042;7.584;2023-05-10T02:03:07;13.50;99.90
26505;DHT22;19493;48.042;7.584;2023-05-10T02:05:34;13.50;99.90
26505;DHT22;19493;48.042;7.584;2023-05-10T02:08:03;13.40;99.90
26505;DHT22;19493;48.042;7.584;2023-05-10T02:10:33;13.40;99.90
26505;DHT22;19493;48.042;7.584;2023-05-10T02:12:59;13.40;99.90
26505;DHT22;19493;48.042;7.584;2023-05-10T02:15:26;13.40;99.90
26505;DHT22;19493;48.042;7.584;2023-05-10T02:17:54;13.40;99.90
26505;DHT22;19493;48.042;7.584;2023-05-10T02:20:20;13.40;99.90
26505;DHT22;19493;48.042;7.584;2023-05-10T02:22:49;13.40;99.90
26505;DHT22;19493;48.042;7.584;2023-05-10T02:25:15;13.40;99.90
26505;DHT22;19493;48.042;7.584;2023-05-10T02:27:42;13.40;99.90
26505;DHT22;19493;48.042;7.584;2023-05-10T02:30:10;13.40;99.90
26505;DHT22;19493;48.042;7.584;2023-05-10T02:32:36;13.30;99.90
26505;DHT22;19493;48.042;7.584;2023-05-10T02:35:04;13.30;99.90
26505;DHT22;19493;48.042;7.584;2023-05-10T02:37:30;13.30;99.90
26505;DHT22;19493;48.042;7.584;2023-05-10T02:39:58;13.30;99.90
26505;DHT22;19493;48.042;7.584;2023-05-10T02:42:27;13.30;99.90
26505;DHT22;19493;48.042;7.584;2023-05-10T02:44:56;13.30;99.90
26505;DHT22;19493;48.042;7.584;2023-05-10T02:47:23;13.30;99.90
26505;DHT22;19493;48.042;7.584;2023-05-10T02:49:48;13.30;99.90
26505;DHT22;19493;48.042;7.584;2023-05-10T02:52:25;13.30;99.90
26505;DHT22;19493;48.042;7.584;2023-05-10T02:54:55;13.30;99.90
26505;DHT22;19493;48.042;7.584;2023-05-10T02:57:33;13.30;99.90
26505;DHT22;19493;48.042;7.584;2023-05-10T02:59:59;13.30;99.90
26505;DHT22;19493;48.042;7.584;2023-05-10T03:02:25;13.30;99.90
26505;DHT22;19493;48.042;7.584;2023-05-10T03:04:51;13.30;99.90
26505;DHT22;19493;48.042;7.584;2023-05-10T03:07:17;13.30;99.90
26505;DHT22;19493;48.042;7.584;2023-05-10T03:09:44;13.30;99.90
26505;DHT22;19493;48.042;7.584;2023-05-10T03:15:00;13.30;99.90
26505;DHT22;19493;48.042;7.584;2023-05-10T03:20:10;13.20;99.90
26505;DHT22;19493;48.042;7.584;2023-05-10T03:22:45;13.10;99.90
26505;DHT22;19493;48.042;7.584;2023-05-10T03:25:12;13.10;99.90
26505;DHT22;19493;48.042;7.584;2023-05-10T03:27:40;13.10;99.90
26505;DHT22;19493;48.042;7.584;2023-05-10T03:30:08;13.00;99.90
26505;DHT22;19493;48.042;7.584;2023-05-10T03:32:35;13.00;99.90
26505;DHT22;19493;48.042;7.584;2023-05-10T03:35:06;13.00;99.90
26505;DHT22;19493;48.042;7.584;2023-05-10T03:37:31;13.00;99.90
26505;DHT22;19493;48.042;7.584;2023-05-10T03:39:57;12.90;99.90
26505;DHT22;19493;48.042;7.584;2023-05-10T03:42:22;12.90;99.90
26505;DHT22;19493;48.042;7.584;2023-05-10T03:44:48;12.80;99.90
26505;DHT22;19493;48.042;7.584;2023-05-10T03:47:15;12.80;99.90
26505;DHT22;19493;48.042;7.584;2023-05-10T03:49:40;12.80;99.90
26505;DHT22;19493;48.042;7.584;2023-05-10T03:52:06;12.80;99.90
26505;DHT22;19493;48.042;7.584;2023-05-10T03:54:31;12.90;99.90
26505;DHT22;19493;48.042;7.584;2023-05-10T03:56:57;12.90;99.90
26505;DHT22;19493;48.042;7.584;2023-05-10T03:59:23;12.90;99.90
26505;DHT22;19493;48.042;7.584;2023-05-10T04:01:48;12.90;99.90
26505;DHT22;19493;48.042;7.584;2023-05-10T04:04:14;12.90;99.90
26505;DHT22;19493;48.042;7.584;2023-05-10T04:06:39;12.80;99.90
26505;DHT22;19493;48.042;7.584;2023-05-10T04:09:05;12.80;99.90
26505;DHT22;19493;48.042;7.584;2023-05-10T04:11:30;12.80;99.90
26505;DHT22;19493;48.042;7.584;2023-05-10T04:13:56;12.70;99.90
26505;DHT22;19493;48.042;7.584;2023-05-10T04:16:21;12.70;99.90
26505;DHT22;19493;48.042;7.584;2023-05-10T04:18:47;12.70;99.90
26505;DHT22;19493;48.042;7.584;2023-05-10T04:21:13;12.70;99.90
26505;DHT22;19493;48.042;7.584;2023-05-10T04:23:39;12.70;99.90
26505;DHT22;19493;48.042;7.584;2023-05-10T04:26:05;12.70;99.90
26505;DHT22;19493;48.042;7.584;2023-05-10T04:28:30;12.70;99.90
26505;DHT22;19493;48.042;7.584;2023-05-10T04:31:07;12.70;99.90
26505;DHT22;19493;48.042;7.584;2023-05-10T04:33:33;12.70;99.90
26505;DHT22;19493;48.042;7.584;2023-05-10T04:35:59;12.70;99.90
26505;DHT22;19493;48.042;7.584;2023-05-10T04:38:24;12.70;99.90
26505;DHT22;19493;48.042;7.584;2023-05-10T04:40:50;12.70;99.90
26505;DHT22;19493;48.042;7.584;2023-05-10T04:43:16;12.70;99.90
26505;DHT22;19493;48.042;7.584;2023-05-10T04:45:41;12.70;99.90
26505;DHT22;19493;48.042;7.584;2023-05-10T04:48:07;12.70;99.90
26505;DHT22;19493;48.042;7.584;2023-05-10T04:50:33;12.70;99.90
26505;DHT22;19493;48.042;7.584;2023-05-10T04:52:58;12.80;99.90
26505;DHT22;19493;48.042;7.584;2023-05-10T04:55:24;12.80;99.90
26505;DHT22;19493;48.042;7.584;2023-05-10T04:57:50;12.80;99.90
26505;DHT22;19493;48.042;7.584;2023-05-10T05:00:16;12.80;99.90
26505;DHT22;19493;48.042;7.584;2023-05-10T05:02:45;12.80;99.90
26505;DHT22;19493;48.042;7.584;2023-05-10T05:05:13;12.80;99.90
26505;DHT22;19493;48.042;7.584;2023-05-10T05:07:39;12.90;99.90
26505;DHT22;19493;48.042;7.584;2023-05-10T05:10:08;12.90;99.90
26505;DHT22;19493;48.042;7.584;2023-05-10T05:12:34;12.90;99.90
26505;DHT22;19493;48.042;7.584;2023-05-10T05:15:00;13.00;99.90
26505;DHT22;19493;48.042;7.584;2023-05-10T05:17:26;13.00;99.90
26505;DHT22;19493;48.042;7.584;2023-05-10T05:19:51;12.90;99.90
26505;DHT22;19493;48.042;7.584;2023-05-10T05:22:17;13.00;99.90
26505;DHT22;19493;48.042;7.584;2023-05-10T05:24:44;13.00;99.90
26505;DHT22;19493;48.042;7.584;2023-05-10T05:27:10;13.00;99.90
26505;DHT22;19493;48.042;7.584;2023-05-10T05:29:35;13.00;99.90
26505;DHT22;19493;48.042;7.584;2023-05-10T05:32:01;13.00;99.90
26505;DHT22;19493;48.042;7.584;2023-05-10T05:34:26;12.90;99.90
26505;DHT22;19493;48.042;7.584;2023-05-10T05:36:52;12.90;99.90
26505;DHT22;19493;48.042;7.584;2023-05-10T05:39:18;12.90;99.90
26505;DHT22;19493;48.042;7.584;2023-05-10T05:41:43;12.90;99.90
26505;DHT22;19493;48.042;7.584;2023-05-10T05:44:09;12.90;99.90
26505;DHT22;19493;48.042;7.584;2023-05-10T05:46:35;13.00;99.90
26505;DHT22;19493;48.042;7.584;2023-05-10T05:49:00;12.90;99.90
26505;DHT22;19493;48.042;7.584;2023-05-10T05:51:26;12.90;99.90
26505;DHT22;19493;48.042;7.584;2023-05-10T05:53:52;12.90;99.90
26505;DHT22;19493;48.042;7.584;2023-05-10T05:56:18;12.90;99.90
26505;DHT22;19493;48.042;7.584;2023-05-10T05:58:52;12.90;99.90
26505;DHT22;19493;48.042;7.584;2023-05-10T06:01:18;12.90;99.90
26505;DHT22;19493;48.042;7.584;2023-05-10T06:03:43;12.90;99.90
26505;DHT22;19493;48.042;7.584;2023-05-10T06:06:09;13.00;99.90
26505;DHT22;19493;48.042;7.584;2023-05-10T06:08:34;13.00;99.90
26505;DHT22;19493;48.042;7.584;2023-05-10T06:11:00;13.10;99.90
26505;DHT22;19493;48.042;7.584;2023-05-10T06:13:26;13.20;99.90
26505;DHT22;19493;48.042;7.584;2023-05-10T06:15:57;13.30;99.90
26505;DHT22;19493;48.042;7.584;2023-05-10T06:18:23;13.40;99.90
26505;DHT22;19493;48.042;7.584;2023-05-10T06:20:49;13.50;99.90
26505;DHT22;19493;48.042;7.584;2023-05-10T06:23:15;13.70;99.90
26505;DHT22;19493;48.042;7.584;2023-05-10T06:25:41;13.70;99.90
26505;DHT22;19493;48.042;7.584;2023-05-10T06:28:06;13.80;99.90
26505;DHT22;19493;48.042;7.584;2023-05-10T06:30:32;13.80;99.90
26505;DHT22;19493;48.042;7.584;2023-05-10T06:32:57;13.80;99.90
26505;DHT22;19493;48.042;7.584;2023-05-10T06:35:23;13.70;99.90
26505;DHT22;19493;48.042;7.584;2023-05-10T06:37:49;13.70;99.90
26505;DHT22;19493;48.042;7.584;2023-05-10T06:40:15;13.80;99.90
26505;DHT22;19493;48.042;7.584;2023-05-10T06:42:41;13.80;99.90
26505;DHT22;19493;48.042;7.584;2023-05-10T06:45:07;13.80;99.90
26505;DHT22;19493;48.042;7.584;2023-05-10T06:47:33;13.80;99.90
26505;DHT22;19493;48.042;7.584;2023-05-10T06:49:59;14.00;99.90
26505;DHT22;19493;48.042;7.584;2023-05-10T06:52:25;14.00;99.90
26505;DHT22;19493;48.042;7.584;2023-05-10T06:54:50;14.10;99.90
26505;DHT22;19493;48.042;7.584;2023-05-10T06:57:16;14.20;99.90
26505;DHT22;19493;48.042;7.584;2023-05-10T06:59:43;14.10;99.90
26505;DHT22;19493;48.042;7.584;2023-05-10T07:02:09;14.10;99.90
26505;DHT22;19493;48.042;7.584;2023-05-10T07:04:34;14.20;99.90
26505;DHT22;19493;48.042;7.584;2023-05-10T07:07:00;14.30;99.90
26505;DHT22;19493;48.042;7.584;2023-05-10T07:09:26;14.40;99.90
26505;DHT22;19493;48.042;7.584;2023-05-10T07:11:51;14.60;99.90
26505;DHT22;19493;48.042;7.584;2023-05-10T07:14:17;14.80;99.90
26505;DHT22;19493;48.042;7.584;2023-05-10T07:16:42;15.10;99.90
26505;DHT22;19493;48.042;7.584;2023-05-10T07:19:08;15.20;99.90
26505;DHT22;19493;48.042;7.584;2023-05-10T07:21:34;15.30;99.90
26505;DHT22;19493;48.042;7.584;2023-05-10T07:24:00;15.40;99.90
26505;DHT22;19493;48.042;7.584;2023-05-10T07:26:26;15.50;99.90
26505;DHT22;19493;48.042;7.584;2023-05-10T07:28:51;15.60;99.90
26505;DHT22;19493;48.042;7.584;2023-05-10T07:31:17;15.70;99.90
26505;DHT22;19493;48.042;7.584;2023-05-10T07:33:43;15.70;99.90
26505;DHT22;19493;48.042;7.584;2023-05-10T07:36:08;15.70;99.90
26505;DHT22;19493;48.042;7.584;2023-05-10T07:38:34;16.00;99.90
26505;DHT22;19493;48.042;7.584;2023-05-10T07:40:59;16.40;99.90
26505;DHT22;19493;48.042;7.584;2023-05-10T07:43:25;16.70;99.90
26505;DHT22;19493;48.042;7.584;2023-05-10T07:45:50;17.10;99.90
26505;DHT22;19493;48.042;7.584;2023-05-10T07:48:16;17.20;99.90
26505;DHT22;19493;48.042;7.584;2023-05-10T07:50:41;17.10;99.90
26505;DHT22;19493;48.042;7.584;2023-05-10T07:53:07;17.00;99.90
26505;DHT22;19493;48.042;7.584;2023-05-10T07:55:33;17.10;99.90
26505;DHT22;19493;48.042;7.584;2023-05-10T07:57:58;17.30;99.90
26505;DHT22;19493;48.042;7.584;2023-05-10T08:00:26;17.70;99.90
26505;DHT22;19493;48.042;7.584;2023-05-10T08:02:52;17.90;99.90
26505;DHT22;19493;48.042;7.584;2023-05-10T08:05:18;18.00;99.90
26505;DHT22;19493;48.042;7.584;2023-05-10T08:07:43;17.80;99.90
26505;DHT22;19493;48.042;7.584;2023-05-10T08:10:09;17.50;99.90
26505;DHT22;19493;48.042;7.584;2023-05-10T08:12:36;17.30;99.90
26505;DHT22;19493;48.042;7.584;2023-05-10T08:15:02;17.20;99.90
26505;DHT22;19493;48.042;7.584;2023-05-10T08:17:28;17.20;99.90
26505;DHT22;19493;48.042;7.584;2023-05-10T08:19:54;17.10;99.90
26505;DHT22;19493;48.042;7.584;2023-05-10T08:22:19;16.80;99.90
26505;DHT22;19493;48.042;7.584;2023-05-10T08:24:45;16.30;99.90
26505;DHT22;19493;48.042;7.584;2023-05-10T08:27:10;15.80;99.90
26505;DHT22;19493;48.042;7.584;2023-05-10T08:29:36;15.60;99.90
26505;DHT22;19493;48.042;7.584;2023-05-10T08:32:02;15.50;99.90
26505;DHT22;19493;48.042;7.584;2023-05-10T08:34:28;15.50;99.90
26505;DHT22;19493;48.042;7.584;2023-05-10T08:36:53;15.50;99.90
26505;DHT22;19493;48.042;7.584;2023-05-10T08:39:19;15.70;99.90
26505;DHT22;19493;48.042;7.584;2023-05-10T08:41:46;15.90;99.90
26505;DHT22;19493;48.042;7.584;2023-05-10T08:44:13;15.90;99.90
26505;DHT22;19493;48.042;7.584;2023-05-10T08:46:41;16.20;99.90
26505;DHT22;19493;48.042;7.584;2023-05-10T08:49:10;16.20;99.90
26505;DHT22;19493;48.042;7.584;2023-05-10T08:51:40;16.40;99.90
26505;DHT22;19493;48.042;7.584;2023-05-10T08:54:08;16.40;99.90
26505;DHT22;19493;48.042;7.584;2023-05-10T08:56:34;16.60;99.90
26505;DHT22;19493;48.042;7.584;2023-05-10T08:58:59;17.00;99.90
26505;DHT22;19493;48.042;7.584;2023-05-10T09:01:26;17.80;99.90
26505;DHT22;19493;48.042;7.584;2023-05-10T09:03:52;18.50;99.90
26505;DHT22;19493;48.042;7.584;2023-05-10T09:06:18;19.20;99.90
26505;DHT22;19493;48.042;7.584;2023-05-10T09:08:44;19.80;99.90
26505;DHT22;19493;48.042;7.584;2023-05-10T09:11:12;20.20;99.90
26505;DHT22;19493;48.042;7.584;2023-05-10T09:13:37;20.30;99.90
26505;DHT22;19493;48.042;7.584;2023-05-10T09:16:03;19.80;99.90
26505;DHT22;19493;48.042;7.584;2023-05-10T09:18:29;19.30;99.90
26505;DHT22;19493;48.042;7.584;2023-05-10T09:20:56;19.00;99.90
26505;DHT22;19493;48.042;7.584;2023-05-10T09:23:22;19.30;99.00
26505;DHT22;19493;48.042;7.584;2023-05-10T09:25:47;20.10;99.40
26505;DHT22;19493;48.042;7.584;2023-05-10T09:28:13;20.60;97.20
26505;DHT22;19493;48.042;7.584;2023-05-10T09:30:38;20.80;95.40
26505;DHT22;19493;48.042;7.584;2023-05-10T09:33:04;21.50;93.50
26505;DHT22;19493;48.042;7.584;2023-05-10T09:35:31;21.70;91.80
26505;DHT22;19493;48.042;7.584;2023-05-10T09:38:00;21.00;91.30
26505;DHT22;19493;48.042;7.584;2023-05-10T09:40:27;19.90;91.30
26505;DHT22;19493;48.042;7.584;2023-05-10T09:43:01;19.50;93.40
26505;DHT22;19493;48.042;7.584;2023-05-10T09:45:29;19.60;93.50
26505;DHT22;19493;48.042;7.584;2023-05-10T09:47:55;20.10;92.40
26505;DHT22;19493;48.042;7.584;2023-05-10T09:50:22;20.30;91.40
26505;DHT22;19493;48.042;7.584;2023-05-10T09:55:20;20.50;91.70
26505;DHT22;19493;48.042;7.584;2023-05-10T09:57:47;20.70;91.70
26505;DHT22;19493;48.042;7.584;2023-05-10T10:00:19;21.00;90.30
26505;DHT22;19493;48.042;7.584;2023-05-10T10:02:56;20.90;90.20
26505;DHT22;19493;48.042;7.584;2023-05-10T10:05:28;20.80;91.20
26505;DHT22;19493;48.042;7.584;2023-05-10T10:07:54;20.60;88.10
26505;DHT22;19493;48.042;7.584;2023-05-10T10:10:20;20.90;90.00
26505;DHT22;19493;48.042;7.584;2023-05-10T10:12:46;21.70;87.90
26505;DHT22;19493;48.042;7.584;2023-05-10T10:15:12;22.80;86.00
26505;DHT22;19493;48.042;7.584;2023-05-10T10:17:38;22.80;84.60
26505;DHT22;19493;48.042;7.584;2023-05-10T10:20:04;23.60;82.30
26505;DHT22;19493;48.042;7.584;2023-05-10T10:22:30;24.30;79.90
26505;DHT22;19493;48.042;7.584;2023-05-10T10:24:56;24.40;72.00
26505;DHT22;19493;48.042;7.584;2023-05-10T10:27:36;24.90;69.80
26505;DHT22;19493;48.042;7.584;2023-05-10T10:35:51;26.40;70.80
26505;DHT22;19493;48.042;7.584;2023-05-10T10:38:17;25.40;62.10
26505;DHT22;19493;48.042;7.584;2023-05-10T10:40:43;23.70;61.80
26505;DHT22;19493;48.042;7.584;2023-05-10T10:43:26;22.70;66.50
26505;DHT22;19493;48.042;7.584;2023-05-10T10:46:15;23.60;65.40
26505;DHT22;19493;48.042;7.584;2023-05-10T10:48:48;25.20;65.60
26505;DHT22;19493;48.042;7.584;2023-05-10T10:51:14;26.50;62.40
26505;DHT22;19493;48.042;7.584;2023-05-10T10:53:40;27.70;57.50
26505;DHT22;19493;48.042;7.584;2023-05-10T10:56:11;27.10;56.70
26505;DHT22;19493;48.042;7.584;2023-05-10T10:58:39;26.80;54.50
26505;DHT22;19493;48.042;7.584;2023-05-10T11:01:15;25.70;56.00
26505;DHT22;19493;48.042;7.584;2023-05-10T11:03:54;23.60;59.10
26505;DHT22;19493;48.042;7.584;2023-05-10T11:06:32;22.50;61.40
26505;DHT22;19493;48.042;7.584;2023-05-10T11:08:59;21.50;65.00
26505;DHT22;19493;48.042;7.584;2023-05-10T11:11:30;21.00;65.80
26505;DHT22;19493;48.042;7.584;2023-05-10T11:14:03;22.20;64.80
26505;DHT22;19493;48.042;7.584;2023-05-10T11:16:43;22.40;62.40
26505;DHT22;19493;48.042;7.584;2023-05-10T11:19:11;21.80;64.80
26505;DHT22;19493;48.042;7.584;2023-05-10T11:24:20;20.60;67.70
26505;DHT22;19493;48.042;7.584;2023-05-10T11:26:45;20.00;70.90
26505;DHT22;19493;48.042;7.584;2023-05-10T11:29:13;20.00;71.90
26505;DHT22;19493;48.042;7.584;2023-05-10T11:31:45;20.30;71.80
26505;DHT22;19493;48.042;7.584;2023-05-10T11:34:22;20.40;70.70
26505;DHT22;19493;48.042;7.584;2023-05-10T11:36:51;20.40;70.60
26505;DHT22;19493;48.042;7.584;2023-05-10T11:39:16;20.30;69.80
26505;DHT22;19493;48.042;7.584;2023-05-10T11:41:42;20.00;69.90
26505;DHT22;19493;48.042;7.584;2023-05-10T11:44:09;19.70;68.90
26505;DHT22;19493;48.042;7.584;2023-05-10T11:46:36;19.70;70.40
26505;DHT22;19493;48.042;7.584;2023-05-10T11:49:02;20.20;72.50
26505;DHT22;19493;48.042;7.584;2023-05-10T11:51:34;22.30;71.10
26505;DHT22;19493;48.042;7.584;2023-05-10T11:54:06;23.30;64.80
26505;DHT22;19493;48.042;7.584;2023-05-10T11:56:33;23.10;64.20
26505;DHT22;19493;48.042;7.584;2023-05-10T11:58:59;23.00;63.40
26505;DHT22;19493;48.042;7.584;2023-05-10T12:01:27;24.60;64.00
26505;DHT22;19493;48.042;7.584;2023-05-10T12:03:55;25.70;58.30
26505;DHT22;19493;48.042;7.584;2023-05-10T12:06:32;25.60;56.80
26505;DHT22;19493;48.042;7.584;2023-05-10T12:09:06;24.90;56.50
26505;DHT22;19493;48.042;7.584;2023-05-10T12:11:32;25.40;57.20
26505;DHT22;19493;48.042;7.584;2023-05-10T12:14:04;25.20;57.50
26505;DHT22;19493;48.042;7.584;2023-05-10T12:16:30;23.90;55.00
26505;DHT22;19493;48.042;7.584;2023-05-10T12:18:57;23.00;57.50
26505;DHT22;19493;48.042;7.584;2023-05-10T12:21:24;22.00;58.90
26505;DHT22;19493;48.042;7.584;2023-05-10T12:23:54;21.00;62.40
26505;DHT22;19493;48.042;7.584;2023-05-10T12:26:24;20.70;64.40
26505;DHT22;19493;48.042;7.584;2023-05-10T12:28:52;20.50;65.50
26505;DHT22;19493;48.042;7.584;2023-05-10T12:31:18;20.10;69.50
26505;DHT22;19493;48.042;7.584;2023-05-10T12:33:44;19.80;72.10
26505;DHT22;19493;48.042;7.584;2023-05-10T12:36:14;20.30;73.10
26505;DHT22;19493;48.042;7.584;2023-05-10T12:38:45;20.50;71.40
26505;DHT22;19493;48.042;7.584;2023-05-10T12:41:15;20.00;73.60
26505;DHT22;19493;48.042;7.584;2023-05-10T12:43:41;19.50;76.20
26505;DHT22;19493;48.042;7.584;2023-05-10T12:46:12;19.00;76.60
26505;DHT22;19493;48.042;7.584;2023-05-10T12:48:39;18.60;78.30
26505;DHT22;19493;48.042;7.584;2023-05-10T12:51:05;18.20;78.70
26505;DHT22;19493;48.042;7.584;2023-05-10T12:53:34;17.90;78.80
26505;DHT22;19493;48.042;7.584;2023-05-10T12:56:00;17.60;78.60
26505;DHT22;19493;48.042;7.584;2023-05-10T12:58:26;17.60;81.50
26505;DHT22;19493;48.042;7.584;2023-05-10T13:00:52;17.30;85.80
26505;DHT22;19493;48.042;7.584;2023-05-10T13:03:18;17.40;89.20
26505;DHT22;19493;48.042;7.584;2023-05-10T13:05:43;18.60;89.90
26505;DHT22;19493;48.042;7.584;2023-05-10T13:08:09;20.00;82.80
26505;DHT22;19493;48.042;7.584;2023-05-10T13:10:35;20.50;78.70
26505;DHT22;19493;48.042;7.584;2023-05-10T13:13:00;22.20;74.70
26505;DHT22;19493;48.042;7.584;2023-05-10T13:15:26;23.50;72.10
26505;DHT22;19493;48.042;7.584;2023-05-10T13:17:53;24.60;66.70
26505;DHT22;19493;48.042;7.584;2023-05-10T13:20:19;27.40;61.30
26505;DHT22;19493;48.042;7.584;2023-05-10T13:22:45;27.00;56.50
26505;DHT22;19493;48.042;7.584;2023-05-10T13:25:11;25.90;56.70
26505;DHT22;19493;48.042;7.584;2023-05-10T13:27:40;24.40;58.80
26505;DHT22;19493;48.042;7.584;2023-05-10T13:30:06;23.10;62.10
26505;DHT22;19493;48.042;7.584;2023-05-10T13:32:32;22.60;64.00
26505;DHT22;19493;48.042;7.584;2023-05-10T13:34:58;22.70;66.40
26505;DHT22;19493;48.042;7.584;2023-05-10T13:37:23;23.40;64.60
26505;DHT22;19493;48.042;7.584;2023-05-10T13:39:49;23.20;64.50
26505;DHT22;19493;48.042;7.584;2023-05-10T13:42:15;22.70;65.10
26505;DHT22;19493;48.042;7.584;2023-05-10T13:44:40;22.20;64.40
26505;DHT22;19493;48.042;7.584;2023-05-10T13:47:06;22.50;65.40
26505;DHT22;19493;48.042;7.584;2023-05-10T13:49:31;25.30;63.50
26505;DHT22;19493;48.042;7.584;2023-05-10T13:51:57;27.70;57.40
26505;DHT22;19493;48.042;7.584;2023-05-10T13:54:23;28.30;55.50
26505;DHT22;19493;48.042;7.584;2023-05-10T13:56:49;26.90;55.30
26505;DHT22;19493;48.042;7.584;2023-05-10T13:59:14;25.80;58.60
26505;DHT22;19493;48.042;7.584;2023-05-10T14:01:41;25.70;57.10
26505;DHT22;19493;48.042;7.584;2023-05-10T14:04:06;24.50;60.20
26505;DHT22;19493;48.042;7.584;2023-05-10T14:06:35;24.10;62.40
26505;DHT22;19493;48.042;7.584;2023-05-10T14:09:02;23.80;60.80
26505;DHT22;19493;48.042;7.584;2023-05-10T14:11:27;25.30;59.30
26505;DHT22;19493;48.042;7.584;2023-05-10T14:13:53;26.50;56.40
26505;DHT22;19493;48.042;7.584;2023-05-10T14:16:19;28.00;56.20
26505;DHT22;19493;48.042;7.584;2023-05-10T14:18:45;29.10;53.80
26505;DHT22;19493;48.042;7.584;2023-05-10T14:21:11;30.10;51.40
26505;DHT22;19493;48.042;7.584;2023-05-10T14:23:37;29.50;47.60
26505;DHT22;19493;48.042;7.584;2023-05-10T14:26:02;29.60;47.30
26505;DHT22;19493;48.042;7.584;2023-05-10T14:28:28;29.80;48.00
26505;DHT22;19493;48.042;7.584;2023-05-10T14:30:53;29.40;46.60
26505;DHT22;19493;48.042;7.584;2023-05-10T14:33:19;27.50;49.40
26505;DHT22;19493;48.042;7.584;2023-05-10T14:35:46;27.90;50.30
26505;DHT22;19493;48.042;7.584;2023-05-10T14:38:12;28.30;50.00
26505;DHT22;19493;48.042;7.584;2023-05-10T14:40:38;28.40;50.00
26505;DHT22;19493;48.042;7.584;2023-05-10T14:43:03;26.50;49.50
26505;DHT22;19493;48.042;7.584;2023-05-10T14:45:29;25.50;53.20
26505;DHT22;19493;48.042;7.584;2023-05-10T14:47:54;26.40;53.40
26505;DHT22;19493;48.042;7.584;2023-05-10T14:50:20;27.60;50.90
26505;DHT22;19493;48.042;7.584;2023-05-10T14:52:46;27.70;50.40
26505;DHT22;19493;48.042;7.584;2023-05-10T14:55:11;28.00;48.60
26505;DHT22;19493;48.042;7.584;2023-05-10T14:57:37;27.10;50.40
26505;DHT22;19493;48.042;7.584;2023-05-10T15:00:03;26.90;51.00
26505;DHT22;19493;48.042;7.584;2023-05-10T15:02:30;27.20;49.10
26505;DHT22;19493;48.042;7.584;2023-05-10T15:04:56;26.60;50.50
26505;DHT22;19493;48.042;7.584;2023-05-10T15:07:22;25.00;53.80
26505;DHT22;19493;48.042;7.584;2023-05-10T15:09:48;24.10;54.80
26505;DHT22;19493;48.042;7.584;2023-05-10T15:12:14;23.30;56.70
26505;DHT22;19493;48.042;7.584;2023-05-10T15:14:39;23.30;58.00
26505;DHT22;19493;48.042;7.584;2023-05-10T15:17:06;23.00;58.50
26505;DHT22;19493;48.042;7.584;2023-05-10T15:19:32;22.70;59.00
26505;DHT22;19493;48.042;7.584;2023-05-10T15:21:58;22.30;58.80
26505;DHT22;19493;48.042;7.584;2023-05-10T15:24:24;21.70;59.70
26505;DHT22;19493;48.042;7.584;2023-05-10T15:26:49;21.50;61.80
26505;DHT22;19493;48.042;7.584;2023-05-10T15:29:15;22.60;60.20
26505;DHT22;19493;48.042;7.584;2023-05-10T15:31:45;22.60;59.60
26505;DHT22;19493;48.042;7.584;2023-05-10T15:34:11;22.70;59.90
26505;DHT22;19493;48.042;7.584;2023-05-10T15:36:36;22.10;60.30
26505;DHT22;19493;48.042;7.584;2023-05-10T15:39:02;21.30;60.70
26505;DHT22;19493;48.042;7.584;2023-05-10T15:41:28;20.40;64.00
26505;DHT22;19493;48.042;7.584;2023-05-10T15:43:54;19.50;65.80
26505;DHT22;19493;48.042;7.584;2023-05-10T15:46:20;18.90;69.40
26505;DHT22;19493;48.042;7.584;2023-05-10T15:48:45;18.40;72.20
26505;DHT22;19493;48.042;7.584;2023-05-10T15:51:11;17.90;74.40
26505;DHT22;19493;48.042;7.584;2023-05-10T15:53:36;17.60;76.80
26505;DHT22;19493;48.042;7.584;2023-05-10T15:56:02;17.40;77.60